createdAt,value
2019-02-08T00:01:12.200Z,98387.48
2019-02-08T00:03:44.443Z,98390.88
2019-02-08T00:06:18.891Z,98387.53
2019-02-08T00:08:53.273Z,98391.34
2019-02-08T00:11:27.900Z,98393.46
2019-02-08T00:13:59.915Z,98393.35
2019-02-08T00:16:34.343Z,98401.89
2019-02-08T00:19:09.702Z,98394.59
2019-02-08T00:21:43.657Z,98394.11
2019-02-08T00:24:15.488Z,98402.51
2019-02-08T00:26:47.320Z,98405.34
2019-02-08T00:29:26.868Z,98405.86
2019-02-08T00:31:58.752Z,98409.16
2019-02-08T00:34:30.606Z,98405.34
2019-02-08T00:37:02.421Z,98403.28
2019-02-08T00:39:34.637Z,98399.82
2019-02-08T00:42:09.670Z,98403.17
2019-02-08T00:44:41.540Z,98401.83
2019-02-08T00:47:16.423Z,98401.42
2019-02-08T00:49:51.289Z,98404.06
2019-02-08T00:52:23.122Z,98405.23
2019-02-08T00:54:59.855Z,98410.64
2019-02-08T00:57:34.013Z,98413.27
2019-02-08T01:00:09.351Z,98410.02
2019-02-08T01:02:42.190Z,98419.03
2019-02-08T01:05:18.084Z,98423.69
2019-02-08T01:07:50.501Z,98420.27
2019-02-08T01:10:29.629Z,98422.56
2019-02-08T01:13:02.290Z,98426.50
2019-02-08T01:15:34.655Z,98426.32
2019-02-08T01:18:13.875Z,98428.44
2019-02-08T01:20:45.743Z,98427.16
2019-02-08T01:23:18.952Z,98427.61
2019-02-08T01:25:50.849Z,98424.57
2019-02-08T01:28:24.313Z,98438.28
2019-02-08T01:30:56.170Z,98435.95
2019-02-08T01:33:28.066Z,98431.14
2019-02-08T01:35:59.834Z,98429.73
2019-02-08T01:38:34.440Z,98427.86
2019-02-08T01:41:06.443Z,98429.38
2019-02-08T01:43:38.331Z,98426.28
2019-02-08T01:46:14.889Z,98431.33
2019-02-08T01:48:46.738Z,98426.81
2019-02-08T01:51:21.825Z,98431.48
2019-02-08T01:53:53.670Z,98431.09
2019-02-08T01:56:34.542Z,98435.55
2019-02-08T01:59:06.574Z,98428.51
2019-02-08T02:01:38.269Z,98429.73
2019-02-08T02:04:14.259Z,98424.12
2019-02-08T02:06:46.087Z,98424.45
2019-02-08T02:09:18.030Z,98430.39
2019-02-08T02:11:51.602Z,98428.67
2019-02-08T02:14:23.135Z,98430.09
2019-02-08T02:16:59.734Z,98430.61
2019-02-08T02:19:33.395Z,98430.95
2019-02-08T02:22:05.438Z,98425.20
2019-02-08T02:24:37.410Z,98427.67
2019-02-08T02:27:09.234Z,98423.15
2019-02-08T02:29:44.525Z,98424.38
2019-02-08T02:32:19.303Z,98427.73
2019-02-08T02:34:51.895Z,98430.07
2019-02-08T02:37:26.492Z,98439.23
2019-02-08T02:39:58.508Z,98435.36
2019-02-08T02:42:30.350Z,98441.27
2019-02-08T02:45:02.195Z,98433.89
2019-02-08T02:47:34.015Z,98440.69
2019-02-08T02:50:08.489Z,98434.47
2019-02-08T02:52:41.827Z,98434.77
2019-02-08T02:55:16.371Z,98435.55
2019-02-08T02:57:49.519Z,98433.02
2019-02-08T03:00:26.911Z,98434.31
2019-02-08T03:02:59.264Z,98432.67
2019-02-08T03:05:34.010Z,98425.52
2019-02-08T03:08:07.601Z,98422.22
2019-02-08T03:10:39.654Z,98422.47
2019-02-08T03:13:14.046Z,98423.16
2019-02-08T03:15:48.648Z,98426.64
2019-02-08T03:18:20.502Z,98421.88
2019-02-08T03:20:52.384Z,98424.70
2019-02-08T03:23:24.270Z,98423.92
2019-02-08T03:25:56.110Z,98422.29
2019-02-08T03:28:28.000Z,98412.86
2019-02-08T03:30:59.943Z,98408.98
2019-02-08T03:33:32.642Z,98414.37
2019-02-08T03:36:04.478Z,98420.19
2019-02-08T03:38:36.312Z,98421.70
2019-02-08T03:41:08.234Z,98416.88
2019-02-08T03:43:40.041Z,98421.11
2019-02-08T03:46:13.804Z,98421.05
2019-02-08T03:48:45.638Z,98423.33
2019-02-08T03:51:20.177Z,98420.06
2019-02-08T03:53:52.003Z,98413.61
2019-02-08T03:56:26.353Z,98413.48
2019-02-08T03:58:58.155Z,98414.66
2019-02-08T04:01:29.745Z,98414.59
2019-02-08T04:04:17.605Z,98412.07
2019-02-08T04:06:49.141Z,98413.91
2019-02-08T04:09:20.725Z,98416.13
2019-02-08T04:11:54.986Z,98418.42
2019-02-08T04:14:26.829Z,98414.55
2019-02-08T04:16:58.684Z,98414.27
2019-02-08T04:19:30.482Z,98414.53
2019-02-08T04:22:03.518Z,98415.83
2019-02-08T04:24:35.338Z,98420.18
2019-02-08T04:27:09.265Z,98422.77
2019-02-08T04:29:41.097Z,98415.02
2019-02-08T04:32:12.950Z,98413.84
2019-02-08T04:34:44.814Z,98408.37
2019-02-08T04:37:16.532Z,98412.95
2019-02-08T04:39:48.504Z,98417.11
2019-02-08T04:42:23.445Z,98414.59
2019-02-08T04:44:55.199Z,98422.18
2019-02-08T04:47:27.055Z,98427.91
2019-02-08T04:49:58.917Z,98418.82
2019-02-08T04:52:30.816Z,98417.13
2019-02-08T04:55:05.205Z,98415.48
2019-02-08T04:57:37.032Z,98423.27
2019-02-08T05:00:28.530Z,98419.64
2019-02-08T05:03:00.478Z,98430.89
2019-02-08T05:05:34.828Z,98425.33
2019-02-08T05:08:07.017Z,98428.31
2019-02-08T05:10:38.564Z,98426.22
2019-02-08T05:13:10.482Z,98426.68
2019-02-08T05:15:42.055Z,98429.27
2019-02-08T05:18:13.594Z,98430.55
2019-02-08T05:20:45.149Z,98433.97
2019-02-08T05:23:16.670Z,98435.14
2019-02-08T05:25:48.205Z,98442.98
2019-02-08T05:28:19.753Z,98440.53
2019-02-08T05:30:51.298Z,98435.58
2019-02-08T05:33:23.111Z,98435.05
2019-02-08T05:35:55.009Z,98434.50
2019-02-08T05:38:26.818Z,98435.67
2019-02-08T05:40:58.665Z,98427.92
2019-02-08T05:43:30.471Z,98425.70
2019-02-08T05:46:03.675Z,98428.81
2019-02-08T05:48:35.496Z,98425.06
2019-02-08T05:51:07.405Z,98432.05
2019-02-08T05:53:39.218Z,98426.54
2019-02-08T05:56:11.041Z,98426.27
2019-02-08T05:58:44.231Z,98422.27
2019-02-08T06:01:16.060Z,98413.22
2019-02-08T06:03:47.886Z,98415.47
2019-02-08T06:06:19.708Z,98419.52
2019-02-08T06:08:51.339Z,98418.88
2019-02-08T06:11:22.898Z,98424.05
2019-02-08T06:13:54.747Z,98431.55
2019-02-08T06:16:26.554Z,98426.44
2019-02-08T06:19:00.013Z,98437.64
2019-02-08T06:21:31.805Z,98435.30
2019-02-08T06:24:03.384Z,98435.58
2019-02-08T06:26:35.029Z,98437.64
2019-02-08T06:29:07.240Z,98434.69
2019-02-08T06:31:39.043Z,98441.20
2019-02-08T06:34:13.688Z,98442.03
2019-02-08T06:36:45.628Z,98443.27
2019-02-08T06:39:17.162Z,98446.44
2019-02-08T06:41:50.654Z,98445.94
2019-02-08T06:44:22.473Z,98439.48
2019-02-08T06:46:55.549Z,98446.45
2019-02-08T06:49:27.404Z,98446.62
2019-02-08T06:51:58.940Z,98449.05
2019-02-08T06:54:30.784Z,98448.79
2019-02-08T06:57:20.011Z,98442.60
2019-02-08T07:00:09.252Z,98452.16
2019-02-08T07:02:51.894Z,98451.84
2019-02-08T07:05:42.310Z,98442.91
2019-02-08T07:08:20.693Z,98447.23
2019-02-08T07:11:04.346Z,98451.47
2019-02-08T07:13:53.791Z,98443.27
2019-02-08T07:16:49.829Z,98448.83
2019-02-08T07:19:46.048Z,98462.25
2019-02-08T07:22:45.720Z,98458.50
2019-02-08T07:25:23.646Z,98454.99
2019-02-08T07:28:11.364Z,98459.61
2019-02-08T07:31:01.175Z,98462.30
2019-02-08T07:33:42.499Z,98465.22
2019-02-08T07:36:25.097Z,98469.41
2019-02-08T07:39:09.148Z,98471.41
2019-02-08T07:42:02.791Z,98462.47
2019-02-08T07:45:02.165Z,98460.88
2019-02-08T07:47:54.053Z,98470.42
2019-02-08T07:50:36.936Z,98463.17
2019-02-08T07:53:26.289Z,98467.53
2019-02-08T07:56:20.886Z,98468.66
2019-02-08T07:59:04.026Z,98464.52
2019-02-08T08:01:57.348Z,98452.50
2019-02-08T08:05:07.298Z,98450.70
2019-02-08T08:08:03.918Z,98454.84
2019-02-08T08:10:56.932Z,98446.98
2019-02-08T08:13:53.699Z,98448.63
2019-02-08T08:16:49.436Z,98456.41
2019-02-08T08:19:41.161Z,98455.83
2019-02-08T08:22:21.031Z,98460.88
2019-02-08T08:25:17.934Z,98463.65
2019-02-08T08:28:21.065Z,98458.66
2019-02-08T08:31:19.111Z,98456.64
2019-02-08T08:34:21.652Z,98459.09
2019-02-08T08:38:07.628Z,98456.08
2019-02-08T08:41:44.828Z,98453.45
2019-02-08T08:45:24.019Z,98466.94
2019-02-08T08:49:12.032Z,98470.89
2019-02-08T08:52:34.972Z,98468.50
2019-02-08T08:56:04.441Z,98459.09
2019-02-08T08:59:15.358Z,98457.62
2019-02-08T09:03:00.245Z,98454.39
2019-02-08T09:06:12.518Z,98457.38
2019-02-08T09:09:45.309Z,98447.59
2019-02-08T09:13:24.748Z,98439.95
2019-02-08T09:16:50.789Z,98441.08
2019-02-08T09:20:14.049Z,98435.70
2019-02-08T09:23:24.475Z,98430.06
2019-02-08T09:26:41.630Z,98414.27
2019-02-08T09:30:40.994Z,98415.34
2019-02-08T09:34:26.194Z,98421.69
2019-02-08T09:38:16.168Z,98410.93
2019-02-08T09:41:48.732Z,98412.95
2019-02-08T09:45:25.114Z,98419.05
2019-02-08T09:48:40.423Z,98424.33
2019-02-08T09:52:33.367Z,98430.10
2019-02-08T09:56:16.577Z,98423.20
2019-02-08T09:59:41.679Z,98419.52
2019-02-08T10:02:57.385Z,98407.59
2019-02-08T10:06:22.461Z,98404.41
2019-02-08T10:09:40.783Z,98413.75
2019-02-08T10:13:07.529Z,98407.39
2019-02-08T10:16:31.641Z,98414.45
2019-02-08T10:20:05.592Z,98407.84
2019-02-08T10:23:31.286Z,98412.12
2019-02-08T10:27:26.681Z,98405.63
2019-02-08T10:30:53.897Z,98408.31
2019-02-08T10:34:50.630Z,98408.22
2019-02-08T10:38:24.140Z,98407.11
2019-02-08T10:42:14.518Z,98402.75
2019-02-08T10:45:50.051Z,98394.91
2019-02-08T10:49:11.248Z,98385.14
2019-02-08T10:52:46.807Z,98385.25
2019-02-08T10:56:26.222Z,98378.81
2019-02-08T11:00:35.296Z,98380.42
2019-02-08T11:04:01.216Z,98367.77
2019-02-08T11:07:28.331Z,98360.88
2019-02-08T11:11:05.191Z,98359.23
2019-02-08T11:14:14.593Z,98354.19
2019-02-08T11:17:42.525Z,98350.82
2019-02-08T11:20:14.125Z,98337.98
2019-02-08T11:22:45.700Z,98333.02
2019-02-08T11:25:19.840Z,98330.98
2019-02-08T11:27:51.383Z,98319.69
2019-02-08T11:30:23.005Z,98310.77
2019-02-08T11:32:54.681Z,98308.73
2019-02-08T11:35:26.255Z,98305.27
2019-02-08T11:37:59.829Z,98301.34
2019-02-08T11:40:31.712Z,98299.79
2019-02-08T11:43:03.276Z,98301.04
2019-02-08T11:45:36.903Z,98292.55
2019-02-08T11:48:08.758Z,98299.02
2019-02-08T11:50:40.335Z,98300.09
2019-02-08T11:53:11.856Z,98304.39
2019-02-08T11:55:43.426Z,98297.61
2019-02-08T11:58:16.410Z,98289.75
2019-02-08T12:00:51.758Z,98294.91
2019-02-08T12:03:23.354Z,98287.88
2019-02-08T12:05:54.957Z,98275.40
2019-02-08T12:08:30.090Z,98275.44
2019-02-08T12:11:01.811Z,98260.38
2019-02-08T12:13:33.353Z,98263.58
2019-02-08T12:16:05.089Z,98254.45
2019-02-08T12:18:36.679Z,98254.20
2019-02-08T12:21:08.263Z,98247.23
2019-02-08T12:23:41.604Z,98237.88
2019-02-08T12:26:18.070Z,98246.72
2019-02-08T12:28:49.646Z,98235.56
2019-02-08T12:31:21.200Z,98236.56
2019-02-08T12:33:52.828Z,98231.67
2019-02-08T12:36:24.494Z,98224.05
2019-02-08T12:38:56.079Z,98221.27
2019-02-08T12:41:27.620Z,98219.91
2019-02-08T12:43:59.218Z,98217.66
2019-02-08T12:46:30.892Z,98210.80
2019-02-08T12:49:02.460Z,98206.83
2019-02-08T12:51:34.452Z,98204.91
2019-02-08T12:54:06.886Z,98194.06
2019-02-08T12:56:45.337Z,98192.55
2019-02-08T12:59:13.208Z,98185.23
2019-02-08T13:01:44.860Z,98185.63
2019-02-08T13:04:16.436Z,98177.70
2019-02-08T13:06:47.997Z,98167.58
2019-02-08T13:09:19.558Z,98166.67
2019-02-08T13:11:51.602Z,98163.07
2019-02-08T13:14:23.253Z,98161.29
2019-02-08T13:16:54.809Z,98162.39
2019-02-08T13:19:26.421Z,98159.69
2019-02-08T13:21:57.951Z,98156.70
2019-02-08T13:24:29.541Z,98148.58
2019-02-08T13:27:02.079Z,98149.13
2019-02-08T13:29:33.670Z,98147.07
2019-02-08T13:32:05.467Z,98141.55
2019-02-08T13:34:37.060Z,98139.33
2019-02-08T13:37:11.115Z,98127.48
2019-02-08T13:39:42.728Z,98129.31
2019-02-08T13:42:14.317Z,98127.86
2019-02-08T13:44:49.660Z,98126.45
2019-02-08T13:47:21.359Z,98122.95
2019-02-08T13:49:53.184Z,98117.27
2019-02-08T13:52:26.046Z,98120.06
2019-02-08T13:54:57.875Z,98117.19
2019-02-08T13:57:29.450Z,98115.41
2019-02-08T14:00:02.882Z,98115.35
2019-02-08T14:02:34.442Z,98106.34
2019-02-08T14:05:10.372Z,98105.63
2019-02-08T14:07:42.590Z,98103.23
2019-02-08T14:10:16.611Z,98101.31
2019-02-08T14:12:48.188Z,98100.59
2019-02-08T14:15:21.216Z,98086.63
2019-02-08T14:17:53.027Z,98080.47
2019-02-08T14:20:25.524Z,98082.97
2019-02-08T14:22:57.347Z,98084.15
2019-02-08T14:25:28.993Z,98074.25
2019-02-08T14:28:00.569Z,98064.53
2019-02-08T14:30:36.692Z,98065.52
2019-02-08T14:33:11.504Z,98064.77
2019-02-08T14:35:45.934Z,98059.36
2019-02-08T14:38:22.818Z,98061.65
2019-02-08T14:40:54.399Z,98065.87
2019-02-08T14:43:25.987Z,98065.20
2019-02-08T14:45:57.638Z,98052.06
2019-02-08T14:48:29.530Z,98043.98
2019-02-08T14:51:01.121Z,98040.02
2019-02-08T14:53:32.751Z,98035.80
2019-02-08T14:56:04.342Z,98035.74
2019-02-08T14:58:35.959Z,98033.13
2019-02-08T15:01:07.550Z,98028.63
2019-02-08T15:03:41.348Z,98028.73
2019-02-08T15:06:12.977Z,98025.25
2019-02-08T15:08:44.651Z,98016.66
2019-02-08T15:11:16.239Z,98016.45
2019-02-08T15:13:47.828Z,98018.52
2019-02-08T15:16:19.519Z,98009.27
2019-02-08T15:18:51.106Z,98015.80
2019-02-08T15:21:22.703Z,98009.27
2019-02-08T15:23:54.270Z,98001.45
2019-02-08T15:26:25.916Z,97999.92
2019-02-08T15:28:57.515Z,97988.40
2019-02-08T15:31:29.191Z,97983.77
2019-02-08T15:34:00.740Z,97986.01
2019-02-08T15:36:33.436Z,97984.80
2019-02-08T15:39:08.976Z,97977.53
2019-02-08T15:41:40.658Z,97978.29
2019-02-08T15:44:12.247Z,97982.20
2019-02-08T15:46:43.809Z,97982.08
2019-02-08T15:49:15.701Z,97984.26
2019-02-08T15:51:47.443Z,97976.41
2019-02-08T15:54:19.133Z,97971.31
2019-02-08T15:56:52.057Z,97966.30
2019-02-08T15:59:23.640Z,97960.83
2019-02-08T16:01:55.178Z,97951.20
2019-02-08T16:04:26.884Z,97948.33
2019-02-08T16:06:58.424Z,97938.48
2019-02-08T16:09:30.029Z,97936.81
2019-02-08T16:12:01.731Z,97943.86
2019-02-08T16:14:33.273Z,97944.87
2019-02-08T16:17:05.073Z,97949.92
2019-02-08T16:19:36.731Z,97945.98
2019-02-08T16:22:08.315Z,97941.41
2019-02-08T16:24:42.933Z,97944.42
2019-02-08T16:27:14.577Z,97937.75
2019-02-08T16:29:46.165Z,97940.94
2019-02-08T16:32:17.734Z,97938.65
2019-02-08T16:34:50.259Z,97934.91
2019-02-08T16:37:21.927Z,97935.81
2019-02-08T16:39:53.555Z,97941.32
2019-02-08T16:42:25.227Z,97941.97
2019-02-08T16:44:58.407Z,97937.38
2019-02-08T16:47:30.005Z,97931.95
2019-02-08T16:50:04.333Z,97929.41
2019-02-08T16:52:35.923Z,97922.01
2019-02-08T16:55:10.826Z,97920.55
2019-02-08T16:57:47.598Z,97913.92
2019-02-08T17:00:20.107Z,97917.50
2019-02-08T17:02:53.288Z,97913.52
2019-02-08T17:05:25.917Z,97910.31
2019-02-08T17:07:57.505Z,97910.70
2019-02-08T17:10:29.488Z,97911.38
2019-02-08T17:13:01.051Z,97909.06
2019-02-08T17:15:33.421Z,97904.06
2019-02-08T17:18:05.432Z,97901.85
2019-02-08T17:20:41.628Z,97903.00
2019-02-08T17:23:14.141Z,97907.81
2019-02-08T17:25:45.717Z,97906.80
2019-02-08T17:28:23.631Z,97903.29
2019-02-08T17:30:55.328Z,97904.84
2019-02-08T17:33:26.932Z,97906.08
2019-02-08T17:35:58.513Z,97897.42
2019-02-08T17:38:30.087Z,97904.69
2019-02-08T17:41:01.647Z,97899.20
2019-02-08T17:43:34.220Z,97896.32
2019-02-08T17:46:06.823Z,97896.70
2019-02-08T17:48:38.435Z,97897.91
2019-02-08T17:51:10.129Z,97895.41
2019-02-08T17:53:41.865Z,97887.61
2019-02-08T17:56:13.447Z,97894.39
2019-02-08T17:58:45.211Z,97897.56
2019-02-08T18:01:16.804Z,97899.20
2019-02-08T18:03:48.400Z,97898.19
2019-02-08T18:06:19.980Z,97889.37
2019-02-08T18:08:51.603Z,97887.33
2019-02-08T18:11:24.972Z,97887.33
2019-02-08T18:13:56.601Z,97893.19
2019-02-08T18:16:28.198Z,97891.89
2019-02-08T18:18:59.977Z,97887.94
2019-02-08T18:21:31.625Z,97878.27
2019-02-08T18:24:04.344Z,97877.64
2019-02-08T18:26:35.984Z,97881.63
2019-02-08T18:29:07.590Z,97884.70
2019-02-08T18:31:39.187Z,97882.30
2019-02-08T18:34:10.835Z,97876.38
2019-02-08T18:36:42.575Z,97878.66
2019-02-08T18:39:14.146Z,97873.17
2019-02-08T18:41:45.799Z,97867.82
2019-02-08T18:44:17.388Z,97868.83
2019-02-08T18:46:48.957Z,97859.45
2019-02-08T18:49:20.572Z,97856.51
2019-02-08T18:51:52.183Z,97861.88
2019-02-08T18:54:23.796Z,97862.38
2019-02-08T18:56:55.432Z,97853.76
2019-02-08T18:59:27.074Z,97848.19
2019-02-08T19:01:58.664Z,97843.84
2019-02-08T19:04:30.257Z,97844.93
2019-02-08T19:07:01.818Z,97853.00
2019-02-08T19:09:33.440Z,97851.91
2019-02-08T19:12:05.107Z,97843.94
2019-02-08T19:14:36.767Z,97845.49
2019-02-08T19:17:08.370Z,97848.17
2019-02-08T19:19:39.987Z,97844.85
2019-02-08T19:22:11.656Z,97840.39
2019-02-08T19:24:44.793Z,97836.87
2019-02-08T19:27:19.665Z,97839.65
2019-02-08T19:29:52.516Z,97835.12
2019-02-08T19:32:24.121Z,97836.30
2019-02-08T19:34:55.750Z,97835.12
2019-02-08T19:37:27.348Z,97836.13
2019-02-08T19:40:48.378Z,97827.96
2019-02-08T19:43:20.290Z,97813.95
2019-02-08T19:45:51.895Z,97819.94
2019-02-08T19:48:23.483Z,97820.52
2019-02-08T19:50:55.156Z,97815.33
2019-02-08T19:53:26.738Z,97809.33
2019-02-08T19:55:58.386Z,97797.45
2019-02-08T19:58:34.477Z,97795.42
2019-02-08T20:01:05.280Z,97784.45
2019-02-08T20:03:41.236Z,97787.98
2019-02-08T20:06:12.942Z,97780.44
2019-02-08T20:08:44.533Z,97787.09
2019-02-08T20:11:16.148Z,97773.33
2019-02-08T20:13:49.158Z,97775.44
2019-02-08T20:16:20.873Z,97772.59
2019-02-08T20:18:52.497Z,97771.02
2019-02-08T20:21:24.226Z,97774.23
2019-02-08T20:23:55.826Z,97774.81
2019-02-08T20:26:27.651Z,97773.14
2019-02-08T20:28:59.228Z,97773.80
2019-02-08T20:31:34.584Z,97759.34
2019-02-08T20:34:06.295Z,97757.59
2019-02-08T20:36:37.926Z,97756.65
2019-02-08T20:39:11.845Z,97756.02
2019-02-08T20:41:43.470Z,97755.45
2019-02-08T20:44:15.089Z,97756.09
2019-02-08T20:46:49.282Z,97753.88
2019-02-08T20:49:20.955Z,97750.93
2019-02-08T20:51:52.840Z,97744.06
2019-02-08T20:54:26.460Z,97748.92
2019-02-08T20:57:01.207Z,97747.86
2019-02-08T20:59:34.670Z,97744.06
2019-02-08T21:02:06.726Z,97742.66
2019-02-08T21:04:38.327Z,97733.38
2019-02-08T21:07:09.926Z,97736.84
2019-02-08T21:09:41.553Z,97739.67
2019-02-08T21:12:13.271Z,97737.47
2019-02-08T21:14:44.838Z,97736.33
2019-02-08T21:17:16.564Z,97732.45
2019-02-08T21:19:48.202Z,97726.28
2019-02-08T21:22:19.815Z,97720.34
2019-02-08T21:24:52.937Z,97714.68
2019-02-08T21:27:25.619Z,97710.58
2019-02-08T21:29:57.202Z,97706.05
2019-02-08T21:32:28.806Z,97705.39
2019-02-08T21:35:00.662Z,97700.98
2019-02-08T21:37:32.394Z,97691.50
2019-02-08T21:40:04.985Z,97685.95
2019-02-08T21:42:37.698Z,97691.59
2019-02-08T21:45:15.186Z,97685.21
2019-02-08T21:47:47.121Z,97679.38
2019-02-08T21:50:19.546Z,97681.83
2019-02-08T21:52:51.167Z,97670.31
2019-02-08T21:55:24.449Z,97667.06
2019-02-08T21:57:56.043Z,97659.26
2019-02-08T22:00:30.333Z,97659.59
2019-02-08T22:03:03.529Z,97659.23
2019-02-08T22:05:40.664Z,97654.09
2019-02-08T22:08:12.557Z,97658.02
2019-02-08T22:10:47.654Z,97661.42
2019-02-08T22:13:19.269Z,97666.44
2019-02-08T22:15:50.969Z,97661.82
2019-02-08T22:18:22.661Z,97654.08
2019-02-08T22:20:54.245Z,97660.14
2019-02-08T22:23:25.834Z,97653.93
2019-02-08T22:25:57.419Z,97648.25
2019-02-08T22:28:29.027Z,97645.86
2019-02-08T22:31:00.911Z,97637.45
2019-02-08T22:33:32.818Z,97633.41
2019-02-08T22:36:04.797Z,97625.27
2019-02-08T22:38:36.541Z,97621.95
2019-02-08T22:41:08.133Z,97622.86
2019-02-08T22:43:39.764Z,97625.09
2019-02-08T22:46:11.431Z,97625.92
2019-02-08T22:48:43.046Z,97625.41
2019-02-08T22:51:14.898Z,97628.86
2019-02-08T22:56:29.742Z,97632.44
2019-02-08T22:59:01.330Z,97635.72
2019-02-08T23:01:43.117Z,97627.75
2019-02-08T23:04:14.705Z,97630.80
2019-02-08T23:06:46.567Z,97625.41
2019-02-08T23:09:23.936Z,97634.59
2019-02-08T23:11:55.776Z,97627.78
2019-02-08T23:14:27.351Z,97627.70
2019-02-08T23:16:59.171Z,97627.44
2019-02-08T23:19:31.069Z,97631.30
2019-02-08T23:22:04.412Z,97644.44
2019-02-08T23:24:36.284Z,97641.11
2019-02-08T23:27:08.167Z,97644.66
2019-02-08T23:29:40.047Z,97644.89
2019-02-08T23:32:11.927Z,97646.93
2019-02-08T23:34:43.765Z,97645.44
2019-02-08T23:37:15.617Z,97653.33
2019-02-08T23:39:47.452Z,97653.39
2019-02-08T23:42:19.303Z,97643.17
2019-02-08T23:44:52.225Z,97640.95
2019-02-08T23:47:24.106Z,97631.09
2019-02-08T23:49:55.966Z,97624.19
2019-02-08T23:52:27.823Z,97623.29
2019-02-08T23:55:00.980Z,97618.28
2019-02-08T23:57:32.865Z,97612.73
